sensor_id;sensor_type;location;lat;lon;timestamp;temperature;humidity
23411;DHT22;11878;51.774;7.220;2024-03-17T00:01:26;4.70;99.90
23411;DHT22;11878;51.774;7.220;2024-03-17T00:04:27;4.70;99.90
23411;DHT22;11878;51.774;7.220;2024-03-17T00:07:28;4.70;99.90
23411;DHT22;11878;51.774;7.220;2024-03-17T00:10:29;4.70;99.90
23411;DHT22;11878;51.774;7.220;2024-03-17T00:13:31;4.70;99.90
23411;DHT22;11878;51.774;7.220;2024-03-17T00:16:32;4.70;99.90
23411;DHT22;11878;51.774;7.220;2024-03-17T00:19:33;4.50;99.90
23411;DHT22;11878;51.774;7.220;2024-03-17T00:22:37;4.50;99.90
23411;DHT22;11878;51.774;7.220;2024-03-17T00:25:40;4.50;99.90
23411;DHT22;11878;51.774;7.220;2024-03-17T00:28:41;4.50;99.90
23411;DHT22;11878;51.774;7.220;2024-03-17T00:31:42;4.50;99.90
23411;DHT22;11878;51.774;7.220;2024-03-17T00:34:43;4.40;99.90
23411;DHT22;11878;51.774;7.220;2024-03-17T00:37:45;4.50;99.90
23411;DHT22;11878;51.774;7.220;2024-03-17T00:40:46;4.50;99.90
23411;DHT22;11878;51.774;7.220;2024-03-17T00:43:48;4.50;99.90
23411;DHT22;11878;51.774;7.220;2024-03-17T00:46:49;4.40;99.90
23411;DHT22;11878;51.774;7.220;2024-03-17T00:49:50;4.40;99.90
23411;DHT22;11878;51.774;7.220;2024-03-17T00:52:51;4.30;99.90
23411;DHT22;11878;51.774;7.220;2024-03-17T00:55:53;4.20;99.90
23411;DHT22;11878;51.774;7.220;2024-03-17T00:58:54;4.00;99.90
23411;DHT22;11878;51.774;7.220;2024-03-17T01:01:55;4.00;99.90
23411;DHT22;11878;51.774;7.220;2024-03-17T01:04:56;4.10;99.90
23411;DHT22;11878;51.774;7.220;2024-03-17T01:07:57;4.00;99.90
23411;DHT22;11878;51.774;7.220;2024-03-17T01:10:58;3.90;99.90
23411;DHT22;11878;51.774;7.220;2024-03-17T01:13:59;3.90;99.90
23411;DHT22;11878;51.774;7.220;2024-03-17T01:17:00;4.00;99.90
23411;DHT22;11878;51.774;7.220;2024-03-17T01:20:05;3.90;99.90
23411;DHT22;11878;51.774;7.220;2024-03-17T01:23:07;3.80;99.90
23411;DHT22;11878;51.774;7.220;2024-03-17T01:26:08;3.80;99.90
23411;DHT22;11878;51.774;7.220;2024-03-17T01:29:10;3.80;99.90
23411;DHT22;11878;51.774;7.220;2024-03-17T01:32:11;3.80;99.90
23411;DHT22;11878;51.774;7.220;2024-03-17T01:35:12;3.80;99.90
23411;DHT22;11878;51.774;7.220;2024-03-17T01:38:13;3.80;99.90
23411;DHT22;11878;51.774;7.220;2024-03-17T01:41:14;3.70;99.90
23411;DHT22;11878;51.774;7.220;2024-03-17T01:44:28;3.60;99.90
23411;DHT22;11878;51.774;7.220;2024-03-17T01:47:29;3.50;99.90
23411;DHT22;11878;51.774;7.220;2024-03-17T01:50:36;3.60;99.90
23411;DHT22;11878;51.774;7.220;2024-03-17T01:53:39;3.60;99.90
23411;DHT22;11878;51.774;7.220;2024-03-17T01:56:40;3.60;99.90
23411;DHT22;11878;51.774;7.220;2024-03-17T01:59:41;3.50;99.90
23411;DHT22;11878;51.774;7.220;2024-03-17T02:02:42;3.50;99.90
23411;DHT22;11878;51.774;7.220;2024-03-17T02:05:44;3.50;99.90
23411;DHT22;11878;51.774;7.220;2024-03-17T02:08:49;3.60;99.90
23411;DHT22;11878;51.774;7.220;2024-03-17T02:11:50;3.60;99.90
23411;DHT22;11878;51.774;7.220;2024-03-17T02:14:52;3.50;99.90
23411;DHT22;11878;51.774;7.220;2024-03-17T02:17:53;3.30;99.90
23411;DHT22;11878;51.774;7.220;2024-03-17T02:20:54;3.30;99.90
23411;DHT22;11878;51.774;7.220;2024-03-17T02:23:59;3.40;99.90
23411;DHT22;11878;51.774;7.220;2024-03-17T02:27:00;3.30;99.90
23411;DHT22;11878;51.774;7.220;2024-03-17T02:30:05;3.40;99.90
23411;DHT22;11878;51.774;7.220;2024-03-17T02:33:10;3.40;99.90
23411;DHT22;11878;51.774;7.220;2024-03-17T02:36:12;3.20;99.90
23411;DHT22;11878;51.774;7.220;2024-03-17T02:39:13;3.20;99.90
23411;DHT22;11878;51.774;7.220;2024-03-17T02:42:32;3.20;99.90
23411;DHT22;11878;51.774;7.220;2024-03-17T02:45:33;3.10;99.90
23411;DHT22;11878;51.774;7.220;2024-03-17T02:48:35;3.00;99.90
23411;DHT22;11878;51.774;7.220;2024-03-17T02:51:37;3.10;99.90
23411;DHT22;11878;51.774;7.220;2024-03-17T02:54:38;3.20;99.90
23411;DHT22;11878;51.774;7.220;2024-03-17T02:57:40;3.10;99.90
23411;DHT22;11878;51.774;7.220;2024-03-17T03:00:41;3.20;99.90
23411;DHT22;11878;51.774;7.220;2024-03-17T03:03:42;3.10;99.90
23411;DHT22;11878;51.774;7.220;2024-03-17T03:06:43;3.00;99.90
23411;DHT22;11878;51.774;7.220;2024-03-17T03:09:44;3.10;99.90
23411;DHT22;11878;51.774;7.220;2024-03-17T03:12:45;3.00;99.90
23411;DHT22;11878;51.774;7.220;2024-03-17T03:15:47;3.00;99.90
23411;DHT22;11878;51.774;7.220;2024-03-17T03:18:50;2.90;99.90
23411;DHT22;11878;51.774;7.220;2024-03-17T03:21:51;3.00;99.90
23411;DHT22;11878;51.774;7.220;2024-03-17T03:24:52;3.00;99.90
23411;DHT22;11878;51.774;7.220;2024-03-17T03:27:53;3.00;99.90
23411;DHT22;11878;51.774;7.220;2024-03-17T03:30:57;3.00;99.90
23411;DHT22;11878;51.774;7.220;2024-03-17T03:33:59;2.90;99.90
23411;DHT22;11878;51.774;7.220;2024-03-17T03:37:03;2.90;99.90
23411;DHT22;11878;51.774;7.220;2024-03-17T03:40:08;3.00;99.90
23411;DHT22;11878;51.774;7.220;2024-03-17T03:43:16;2.80;99.90
23411;DHT22;11878;51.774;7.220;2024-03-17T03:46:18;2.90;99.90
23411;DHT22;11878;51.774;7.220;2024-03-17T03:49:20;2.80;99.90
23411;DHT22;11878;51.774;7.220;2024-03-17T03:52:21;2.70;99.90
23411;DHT22;11878;51.774;7.220;2024-03-17T03:55:22;2.70;99.90
23411;DHT22;11878;51.774;7.220;2024-03-17T03:58:23;2.80;99.90
23411;DHT22;11878;51.774;7.220;2024-03-17T04:01:24;2.80;99.90
23411;DHT22;11878;51.774;7.220;2024-03-17T04:04:26;2.70;99.90
23411;DHT22;11878;51.774;7.220;2024-03-17T04:07:27;2.70;99.90
23411;DHT22;11878;51.774;7.220;2024-03-17T04:10:28;4.40;99.90
23411;DHT22;11878;51.774;7.220;2024-03-17T04:13:29;2.60;99.90
23411;DHT22;11878;51.774;7.220;2024-03-17T04:16:31;2.50;99.90
23411;DHT22;11878;51.774;7.220;2024-03-17T04:19:32;2.60;99.90
23411;DHT22;11878;51.774;7.220;2024-03-17T04:22:34;2.60;99.90
23411;DHT22;11878;51.774;7.220;2024-03-17T04:25:35;2.60;99.90
23411;DHT22;11878;51.774;7.220;2024-03-17T04:28:35;2.60;99.90
23411;DHT22;11878;51.774;7.220;2024-03-17T04:31:37;2.60;99.90
23411;DHT22;11878;51.774;7.220;2024-03-17T04:34:38;2.60;99.90
23411;DHT22;11878;51.774;7.220;2024-03-17T04:37:39;2.70;99.90
23411;DHT22;11878;51.774;7.220;2024-03-17T04:40:41;2.70;99.90
23411;DHT22;11878;51.774;7.220;2024-03-17T04:43:42;2.70;99.90
23411;DHT22;11878;51.774;7.220;2024-03-17T04:46:43;2.70;99.90
23411;DHT22;11878;51.774;7.220;2024-03-17T04:49:45;2.70;99.90
23411;DHT22;11878;51.774;7.220;2024-03-17T04:52:46;2.70;99.90
23411;DHT22;11878;51.774;7.220;2024-03-17T04:55:47;2.60;99.90
23411;DHT22;11878;51.774;7.220;2024-03-17T04:58:48;2.70;99.90
23411;DHT22;11878;51.774;7.220;2024-03-17T05:01:49;2.70;99.90
23411;DHT22;11878;51.774;7.220;2024-03-17T05:04:51;2.70;99.90
23411;DHT22;11878;51.774;7.220;2024-03-17T05:07:52;2.70;99.90
23411;DHT22;11878;51.774;7.220;2024-03-17T05:11:00;2.70;99.90
23411;DHT22;11878;51.774;7.220;2024-03-17T05:14:02;2.70;99.90
23411;DHT22;11878;51.774;7.220;2024-03-17T05:17:03;2.60;99.90
23411;DHT22;11878;51.774;7.220;2024-03-17T05:20:04;2.60;99.90
23411;DHT22;11878;51.774;7.220;2024-03-17T05:23:06;2.50;99.90
23411;DHT22;11878;51.774;7.220;2024-03-17T05:26:07;2.60;99.90
23411;DHT22;11878;51.774;7.220;2024-03-17T05:29:08;2.60;99.90
23411;DHT22;11878;51.774;7.220;2024-03-17T05:32:09;2.60;99.90
23411;DHT22;11878;51.774;7.220;2024-03-17T05:35:10;2.80;99.90
23411;DHT22;11878;51.774;7.220;2024-03-17T05:38:11;2.70;99.90
23411;DHT22;11878;51.774;7.220;2024-03-17T05:41:12;2.80;99.90
23411;DHT22;11878;51.774;7.220;2024-03-17T05:44:13;2.80;99.90
23411;DHT22;11878;51.774;7.220;2024-03-17T05:47:19;2.90;99.90
23411;DHT22;11878;51.774;7.220;2024-03-17T05:50:20;2.80;99.90
23411;DHT22;11878;51.774;7.220;2024-03-17T05:53:21;2.80;99.90
23411;DHT22;11878;51.774;7.220;2024-03-17T05:56:31;2.80;99.90
23411;DHT22;11878;51.774;7.220;2024-03-17T05:59:32;2.80;99.90
23411;DHT22;11878;51.774;7.220;2024-03-17T06:02:33;2.80;99.90
23411;DHT22;11878;51.774;7.220;2024-03-17T06:05:36;2.90;99.90
23411;DHT22;11878;51.774;7.220;2024-03-17T06:08:39;2.90;99.90
23411;DHT22;11878;51.774;7.220;2024-03-17T06:11:40;3.00;99.90
23411;DHT22;11878;51.774;7.220;2024-03-17T06:14:41;3.10;99.90
23411;DHT22;11878;51.774;7.220;2024-03-17T06:17:42;3.20;99.90
23411;DHT22;11878;51.774;7.220;2024-03-17T06:20:47;3.40;99.90
23411;DHT22;11878;51.774;7.220;2024-03-17T06:23:48;3.50;99.90
23411;DHT22;11878;51.774;7.220;2024-03-17T06:26:50;3.70;99.90
23411;DHT22;11878;51.774;7.220;2024-03-17T06:29:51;3.70;99.90
23411;DHT22;11878;51.774;7.220;2024-03-17T06:32:53;3.90;99.90
23411;DHT22;11878;51.774;7.220;2024-03-17T06:35:57;3.80;99.90
23411;DHT22;11878;51.774;7.220;2024-03-17T06:38:59;3.90;99.90
23411;DHT22;11878;51.774;7.220;2024-03-17T06:42:02;4.10;99.90
23411;DHT22;11878;51.774;7.220;2024-03-17T06:45:04;4.20;99.90
23411;DHT22;11878;51.774;7.220;2024-03-17T06:48:05;4.30;99.90
23411;DHT22;11878;51.774;7.220;2024-03-17T06:51:07;4.40;99.90
23411;DHT22;11878;51.774;7.220;2024-03-17T06:54:09;4.40;99.90
23411;DHT22;11878;51.774;7.220;2024-03-17T06:57:10;4.40;99.90
23411;DHT22;11878;51.774;7.220;2024-03-17T07:00:14;4.40;99.90
23411;DHT22;11878;51.774;7.220;2024-03-17T07:03:17;4.50;99.90
23411;DHT22;11878;51.774;7.220;2024-03-17T07:06:19;4.60;99.90
23411;DHT22;11878;51.774;7.220;2024-03-17T07:09:20;4.60;99.90
23411;DHT22;11878;51.774;7.220;2024-03-17T07:12:21;4.70;99.90
23411;DHT22;11878;51.774;7.220;2024-03-17T07:15:22;4.70;99.90
23411;DHT22;11878;51.774;7.220;2024-03-17T07:18:25;4.80;99.90
23411;DHT22;11878;51.774;7.220;2024-03-17T07:21:27;5.00;99.90
23411;DHT22;11878;51.774;7.220;2024-03-17T07:24:28;5.10;99.90
23411;DHT22;11878;51.774;7.220;2024-03-17T07:27:30;5.10;99.90
23411;DHT22;11878;51.774;7.220;2024-03-17T07:30:32;5.30;99.90
23411;DHT22;11878;51.774;7.220;2024-03-17T07:33:33;5.50;99.90
23411;DHT22;11878;51.774;7.220;2024-03-17T07:36:34;5.50;99.90
23411;DHT22;11878;51.774;7.220;2024-03-17T07:39:35;5.60;99.90
23411;DHT22;11878;51.774;7.220;2024-03-17T07:42:36;5.80;99.90
23411;DHT22;11878;51.774;7.220;2024-03-17T07:45:38;5.90;99.90
23411;DHT22;11878;51.774;7.220;2024-03-17T07:48:40;6.00;99.90
23411;DHT22;11878;51.774;7.220;2024-03-17T07:51:42;6.10;99.90
23411;DHT22;11878;51.774;7.220;2024-03-17T07:54:45;6.20;99.90
23411;DHT22;11878;51.774;7.220;2024-03-17T07:57:46;6.20;99.90
23411;DHT22;11878;51.774;7.220;2024-03-17T08:00:46;6.40;99.90
23411;DHT22;11878;51.774;7.220;2024-03-17T08:03:47;6.60;99.90
23411;DHT22;11878;51.774;7.220;2024-03-17T08:06:56;6.60;99.90
23411;DHT22;11878;51.774;7.220;2024-03-17T08:09:57;6.80;99.90
23411;DHT22;11878;51.774;7.220;2024-03-17T08:13:07;6.90;99.90
23411;DHT22;11878;51.774;7.220;2024-03-17T08:16:30;7.10;99.90
23411;DHT22;11878;51.774;7.220;2024-03-17T08:19:31;7.10;99.90
23411;DHT22;11878;51.774;7.220;2024-03-17T08:22:33;7.20;99.90
23411;DHT22;11878;51.774;7.220;2024-03-17T08:25:57;7.50;99.90
23411;DHT22;11878;51.774;7.220;2024-03-17T08:28:59;7.60;99.90
23411;DHT22;11878;51.774;7.220;2024-03-17T08:32:00;7.50;99.90
23411;DHT22;11878;51.774;7.220;2024-03-17T08:35:01;7.60;99.90
23411;DHT22;11878;51.774;7.220;2024-03-17T08:38:02;7.80;99.90
23411;DHT22;11878;51.774;7.220;2024-03-17T08:41:08;8.20;99.90
23411;DHT22;11878;51.774;7.220;2024-03-17T08:44:10;8.50;99.90
23411;DHT22;11878;51.774;7.220;2024-03-17T08:47:13;8.60;99.90
23411;DHT22;11878;51.774;7.220;2024-03-17T08:50:17;9.10;99.90
23411;DHT22;11878;51.774;7.220;2024-03-17T08:53:24;8.90;99.90
23411;DHT22;11878;51.774;7.220;2024-03-17T09:14:22;9.40;99.90
23411;DHT22;11878;51.774;7.220;2024-03-17T09:17:23;9.70;99.90
23411;DHT22;11878;51.774;7.220;2024-03-17T09:20:24;9.80;99.90
23411;DHT22;11878;51.774;7.220;2024-03-17T09:23:25;9.80;99.90
23411;DHT22;11878;51.774;7.220;2024-03-17T09:26:26;10.10;99.90
23411;DHT22;11878;51.774;7.220;2024-03-17T13:18:19;14.60;98.90
23411;DHT22;11878;51.774;7.220;2024-03-17T13:21:27;14.80;99.70
23411;DHT22;11878;51.774;7.220;2024-03-17T13:24:28;14.50;98.50
23411;DHT22;11878;51.774;7.220;2024-03-17T13:27:36;13.90;95.50
23411;DHT22;11878;51.774;7.220;2024-03-17T13:31:03;14.10;98.70
23411;DHT22;11878;51.774;7.220;2024-03-17T17:51:55;11.70;99.90
23411;DHT22;11878;51.774;7.220;2024-03-17T17:54:58;11.60;99.90
23411;DHT22;11878;51.774;7.220;2024-03-17T17:58:17;11.50;99.90
23411;DHT22;11878;51.774;7.220;2024-03-17T18:01:52;11.50;99.90
23411;DHT22;11878;51.774;7.220;2024-03-17T18:05:01;11.50;99.90
23411;DHT22;11878;51.774;7.220;2024-03-17T18:08:06;11.50;99.90
23411;DHT22;11878;51.774;7.220;2024-03-17T18:11:17;11.40;99.90
23411;DHT22;11878;51.774;7.220;2024-03-17T18:14:18;11.40;99.90
23411;DHT22;11878;51.774;7.220;2024-03-17T18:17:22;11.40;99.90
23411;DHT22;11878;51.774;7.220;2024-03-17T18:20:24;11.30;99.90
23411;DHT22;11878;51.774;7.220;2024-03-17T18:23:25;11.50;99.90
23411;DHT22;11878;51.774;7.220;2024-03-17T18:27:14;11.20;99.90
23411;DHT22;11878;51.774;7.220;2024-03-17T18:30:17;11.20;99.90
23411;DHT22;11878;51.774;7.220;2024-03-17T18:33:20;11.20;99.90
23411;DHT22;11878;51.774;7.220;2024-03-17T18:36:21;11.20;99.90
23411;DHT22;11878;51.774;7.220;2024-03-17T18:39:22;11.20;99.90
23411;DHT22;11878;51.774;7.220;2024-03-17T18:42:38;11.20;99.90
23411;DHT22;11878;51.774;7.220;2024-03-17T18:45:44;11.20;99.90
23411;DHT22;11878;51.774;7.220;2024-03-17T18:49:06;11.10;99.90
23411;DHT22;11878;51.774;7.220;2024-03-17T18:52:19;11.10;99.90
23411;DHT22;11878;51.774;7.220;2024-03-17T18:55:31;11.10;99.90
23411;DHT22;11878;51.774;7.220;2024-03-17T18:58:34;11.10;99.90
23411;DHT22;11878;51.774;7.220;2024-03-17T19:01:36;11.10;99.90
23411;DHT22;11878;51.774;7.220;2024-03-17T19:04:37;11.10;99.90
23411;DHT22;11878;51.774;7.220;2024-03-17T19:07:40;11.00;99.90
23411;DHT22;11878;51.774;7.220;2024-03-17T19:10:58;11.00;99.90
23411;DHT22;11878;51.774;7.220;2024-03-17T19:14:31;10.90;99.90
23411;DHT22;11878;51.774;7.220;2024-03-17T19:17:33;10.90;99.90
23411;DHT22;11878;51.774;7.220;2024-03-17T19:20:36;10.90;99.90
23411;DHT22;11878;51.774;7.220;2024-03-17T19:23:42;10.90;99.90
23411;DHT22;11878;51.774;7.220;2024-03-17T19:27:18;10.90;99.90
23411;DHT22;11878;51.774;7.220;2024-03-17T19:30:54;10.90;99.90
23411;DHT22;11878;51.774;7.220;2024-03-17T19:34:04;10.90;99.90
23411;DHT22;11878;51.774;7.220;2024-03-17T19:37:13;10.80;99.90
23411;DHT22;11878;51.774;7.220;2024-03-17T19:40:14;10.80;99.90
23411;DHT22;11878;51.774;7.220;2024-03-17T19:43:15;10.80;99.90
23411;DHT22;11878;51.774;7.220;2024-03-17T19:46:19;10.80;99.90
23411;DHT22;11878;51.774;7.220;2024-03-17T19:49:33;10.70;99.90
23411;DHT22;11878;51.774;7.220;2024-03-17T19:53:04;10.70;99.90
23411;DHT22;11878;51.774;7.220;2024-03-17T19:56:14;10.70;99.90
23411;DHT22;11878;51.774;7.220;2024-03-17T19:59:46;10.70;99.90
23411;DHT22;11878;51.774;7.220;2024-03-17T20:02:50;10.70;99.90
